Terminal Aerodrome Forecast
Issued by NWS

Home | Current Version | Previous Version | Text Only | Print | Product List | Glossary On
Versions: 1 2 3 4 5 6 7 8 9 10 11 12 13 14 15 16 17 18 19 20 21 22 23 24 25 26 27 28
000
FTUS41 KBOX 240542
TAFBED
TAF
KBED 240542Z 2406/2506 28004KT P6SM BKN025 BKN120
     FM240800 30004KT 6SM BR BKN020
     FM241500 35007KT P6SM BKN035
     FM241800 35006KT P6SM BKN080
     FM241900 36006KT P6SM SCT080
     FM250200 00000KT P6SM SCT250=

USA.gov is the U.S. government's official web portal to all federal, state and local government web resources and services.